createdAt,value
2022-11-20T00:01:53.943Z,7.43
2022-11-20T00:04:25.846Z,7.20
2022-11-20T00:06:53.853Z,7.60
2022-11-20T00:09:23.861Z,8.02
2022-11-20T00:11:52.987Z,8.85
2022-11-20T00:14:21.258Z,7.65
2022-11-20T00:16:50.633Z,7.50
2022-11-20T00:19:20.841Z,7.40
2022-11-20T00:21:57.821Z,8.50
2022-11-20T00:24:25.678Z,8.45
2022-11-20T00:26:54.065Z,8.27
2022-11-20T00:29:25.648Z,8.18
2022-11-20T00:31:53.827Z,8.93
2022-11-20T00:34:24.578Z,8.88
2022-11-20T00:36:53.084Z,8.45
2022-11-20T00:39:22.020Z,8.57
2022-11-20T00:41:50.286Z,8.23
2022-11-20T00:44:18.117Z,8.02
2022-11-20T00:46:51.861Z,8.57
2022-11-20T00:49:22.241Z,8.52
2022-11-20T00:51:51.280Z,7.47
2022-11-20T00:54:21.410Z,8.27
2022-11-20T00:56:50.675Z,8.40
2022-11-20T00:59:25.296Z,7.45
2022-11-20T01:01:54.655Z,7.90
2022-11-20T01:04:28.202Z,8.48
2022-11-20T01:09:16.122Z,8.38
2022-11-20T01:11:38.798Z,8.15
2022-11-20T01:14:11.438Z,8.43
2022-11-20T01:17:00.908Z,9.05
2022-11-20T01:19:28.769Z,8.60
2022-11-20T01:22:01.568Z,7.78
2022-11-20T01:24:29.801Z,9.27
2022-11-20T01:27:00.529Z,9.27
2022-11-20T01:29:28.367Z,8.32
2022-11-20T01:31:58.293Z,9.52
2022-11-20T01:34:32.649Z,8.75
2022-11-20T01:37:03.073Z,8.48
2022-11-20T01:39:32.728Z,8.20
2022-11-20T01:42:42.234Z,8.38
2022-11-20T01:45:48.213Z,8.63
2022-11-20T01:48:20.489Z,8.50
2022-11-20T01:50:49.690Z,7.95
2022-11-20T01:53:21.192Z,9.77
2022-11-20T01:57:01.758Z,9.45
2022-11-20T01:59:30.774Z,8.98
2022-11-20T02:07:21.780Z,8.38
2022-11-20T02:09:49.672Z,9.23
2022-11-20T02:12:38.383Z,10.13
2022-11-20T02:15:09.564Z,9.60
2022-11-20T02:17:43.344Z,9.38
2022-11-20T02:20:17.142Z,8.70
2022-11-20T02:23:38.401Z,8.10
2022-11-20T02:26:13.585Z,7.97
2022-11-20T02:28:45.389Z,7.75
2022-11-20T02:31:13.717Z,8.45
2022-11-20T02:36:59.461Z,8.40
2022-11-20T02:39:32.696Z,8.95
2022-11-20T02:42:02.082Z,9.05
2022-11-20T02:44:30.052Z,8.18
2022-11-20T02:47:04.261Z,8.60
2022-11-20T02:49:33.504Z,9.05
2022-11-20T02:55:25.765Z,9.07
2022-11-20T02:57:57.785Z,9.68
2022-11-20T03:00:55.080Z,9.18
2022-11-20T03:03:22.991Z,8.65
2022-11-20T03:05:54.346Z,9.75
2022-11-20T03:08:22.492Z,8.93
2022-11-20T03:10:50.801Z,9.63
2022-11-20T03:13:18.807Z,8.75
2022-11-20T03:15:46.809Z,9.18
2022-11-20T03:18:17.634Z,9.43
2022-11-20T03:20:45.565Z,9.95
2022-11-20T03:23:19.558Z,9.68
2022-11-20T03:25:47.770Z,9.77
2022-11-20T03:28:16.459Z,9.85
2022-11-20T03:30:47.086Z,10.07
2022-11-20T03:33:15.118Z,10.10
2022-11-20T03:35:43.735Z,9.38
2022-11-20T03:38:11.619Z,9.65
2022-11-20T03:40:39.679Z,9.15
2022-11-20T03:43:07.759Z,9.38
2022-11-20T03:45:35.896Z,9.50
2022-11-20T03:48:03.760Z,9.38
2022-11-20T03:50:31.594Z,9.63
2022-11-20T03:52:59.524Z,8.75
2022-11-20T03:55:28.512Z,9.00
2022-11-20T03:57:56.626Z,9.43
2022-11-20T04:00:24.959Z,10.43
2022-11-20T04:02:52.950Z,9.88
2022-11-20T04:05:21.831Z,8.93
2022-11-20T04:07:50.772Z,9.60
2022-11-20T04:10:18.807Z,9.65
2022-11-20T04:12:49.911Z,8.88
2022-11-20T04:15:17.943Z,9.10
2022-11-20T04:17:46.898Z,9.57
2022-11-20T04:20:19.206Z,10.45
2022-11-20T04:22:48.867Z,9.75
2022-11-20T04:25:17.006Z,8.98
2022-11-20T04:27:45.849Z,9.15
2022-11-20T04:30:14.015Z,9.50
2022-11-20T04:32:41.781Z,9.60
2022-11-20T04:35:09.730Z,9.38
2022-11-20T04:37:39.300Z,9.57
2022-11-20T04:40:07.636Z,8.70
2022-11-20T04:42:36.453Z,9.55
2022-11-20T04:45:04.455Z,9.25
2022-11-20T04:47:34.560Z,10.07
2022-11-20T04:50:02.403Z,9.73
2022-11-20T04:52:30.364Z,10.68
2022-11-20T04:54:58.335Z,11.10
2022-11-20T04:57:26.133Z,9.63
2022-11-20T04:59:54.007Z,11.02
2022-11-20T05:02:22.597Z,12.00
2022-11-20T05:04:51.399Z,11.30
2022-11-20T05:07:19.702Z,12.23
2022-11-20T05:09:47.677Z,11.38
2022-11-20T05:12:15.579Z,11.02
2022-11-20T05:14:43.378Z,10.82
2022-11-20T05:17:12.781Z,12.50
2022-11-20T05:19:40.654Z,11.25
2022-11-20T05:22:08.571Z,12.52
2022-11-20T05:24:36.441Z,12.25
2022-11-20T05:27:04.750Z,11.57
2022-11-20T05:29:32.474Z,12.05
2022-11-20T05:32:00.637Z,11.40
2022-11-20T05:34:28.481Z,13.05
2022-11-20T05:36:56.332Z,11.88
2022-11-20T05:39:24.475Z,12.38
2022-11-20T05:42:13.427Z,11.93
2022-11-20T05:44:41.213Z,12.10
2022-11-20T05:47:08.975Z,11.90
2022-11-20T05:49:36.962Z,13.57
2022-11-20T05:52:05.065Z,12.65
2022-11-20T05:54:33.512Z,12.32
2022-11-20T05:57:02.144Z,12.18
2022-11-20T05:59:30.629Z,12.70
2022-11-20T06:01:58.557Z,12.68
2022-11-20T06:04:26.625Z,13.93
2022-11-20T06:06:54.483Z,13.88
2022-11-20T06:09:22.483Z,14.02
2022-11-20T06:11:53.091Z,12.48
2022-11-20T06:14:23.416Z,13.32
2022-11-20T06:16:52.856Z,12.57
2022-11-20T06:19:22.559Z,11.93
2022-11-20T06:21:51.006Z,11.88
2022-11-20T06:24:19.040Z,11.18
2022-11-20T06:26:47.689Z,12.70
2022-11-20T06:29:15.760Z,11.68
2022-11-20T06:31:44.627Z,13.00
2022-11-20T06:34:12.794Z,12.85
2022-11-20T06:36:41.391Z,11.82
2022-11-20T06:39:09.439Z,11.95
2022-11-20T06:41:37.809Z,14.90
2022-11-20T06:44:06.767Z,14.15
2022-11-20T06:46:37.865Z,16.13
2022-11-20T06:49:05.930Z,15.77
2022-11-20T06:51:33.936Z,15.85
2022-11-20T06:54:02.202Z,16.67
2022-11-20T06:56:31.080Z,19.17
2022-11-20T06:58:59.190Z,20.23
2022-11-20T07:01:27.269Z,18.60
2022-11-20T07:03:55.264Z,18.83
2022-11-20T07:06:23.193Z,19.92
2022-11-20T07:08:53.882Z,17.33
2022-11-20T07:11:21.782Z,17.98
2022-11-20T07:13:49.896Z,18.83
2022-11-20T07:16:18.290Z,18.77
2022-11-20T07:18:50.482Z,18.05
2022-11-20T07:21:19.055Z,14.60
2022-11-20T07:23:46.839Z,17.98
2022-11-20T07:26:14.740Z,17.27
2022-11-20T07:28:46.270Z,16.83
2022-11-20T07:31:19.126Z,17.20
2022-11-20T07:33:47.990Z,16.55
2022-11-20T07:36:15.841Z,15.32
2022-11-20T07:38:44.541Z,15.77
2022-11-20T07:41:12.490Z,16.42
2022-11-20T07:43:41.645Z,15.10
2022-11-20T07:46:10.048Z,17.15
2022-11-20T07:48:38.842Z,16.33
2022-11-20T07:51:06.651Z,15.63
2022-11-20T07:53:34.619Z,17.63
2022-11-20T07:56:03.455Z,17.40
2022-11-20T07:58:33.922Z,14.80
2022-11-20T08:01:06.115Z,15.93
2022-11-20T08:03:35.138Z,15.60
2022-11-20T08:06:03.176Z,17.30
2022-11-20T08:08:33.649Z,15.45
2022-11-20T08:11:20.723Z,16.90
2022-11-20T08:14:07.450Z,15.45
2022-11-20T08:16:35.415Z,16.15
2022-11-20T08:19:04.069Z,17.35
2022-11-20T08:21:37.783Z,15.35
2022-11-20T08:24:07.086Z,15.40
2022-11-20T08:26:38.296Z,17.02
2022-11-20T08:29:07.321Z,14.55
2022-11-20T08:31:35.349Z,15.73
2022-11-20T08:34:08.719Z,14.65
2022-11-20T08:36:37.251Z,16.88
2022-11-20T08:39:06.165Z,15.75
2022-11-20T08:41:34.392Z,15.43
2022-11-20T08:44:07.823Z,14.63
2022-11-20T08:46:44.842Z,14.38
2022-11-20T08:49:15.025Z,12.90
2022-11-20T08:51:43.142Z,15.75
2022-11-20T08:54:12.645Z,13.45
2022-11-20T08:56:40.726Z,14.82
2022-11-20T08:59:23.332Z,15.07
2022-11-20T09:01:58.454Z,16.75
2022-11-20T09:04:27.435Z,17.80
2022-11-20T09:06:55.595Z,17.75
2022-11-20T09:09:24.031Z,16.50
2022-11-20T09:11:53.299Z,18.10
2022-11-20T09:14:21.288Z,18.13
2022-11-20T09:16:49.209Z,17.35
2022-11-20T09:19:35.050Z,17.17
2022-11-20T09:22:04.290Z,17.92
2022-11-20T09:24:32.773Z,17.73
2022-11-20T09:27:04.158Z,17.55
2022-11-20T09:29:32.079Z,16.33
2022-11-20T09:32:01.325Z,16.83
2022-11-20T09:34:31.253Z,16.45
2022-11-20T09:37:04.525Z,16.38
2022-11-20T09:39:39.972Z,16.65
2022-11-20T09:42:10.501Z,17.93
2022-11-20T09:45:06.354Z,17.38
2022-11-20T09:47:50.136Z,16.70
2022-11-20T09:50:27.934Z,18.88
2022-11-20T09:53:14.958Z,19.10
2022-11-20T09:55:43.234Z,18.48
2022-11-20T09:58:43.901Z,17.17
2022-11-20T10:01:19.001Z,19.10
2022-11-20T10:04:03.444Z,17.90
2022-11-20T10:06:34.533Z,22.88
2022-11-20T10:09:16.989Z,21.27
2022-11-20T10:12:06.771Z,22.17
2022-11-20T10:14:34.833Z,23.05
2022-11-20T10:17:35.072Z,24.55
2022-11-20T10:20:12.667Z,22.02
2022-11-20T10:23:29.997Z,22.35
2022-11-20T10:26:16.301Z,22.38
2022-11-20T10:28:59.303Z,22.67
2022-11-20T10:31:37.844Z,21.92
2022-11-20T10:34:22.620Z,20.67
2022-11-20T10:36:57.019Z,19.60
2022-11-20T10:39:36.003Z,20.55
2022-11-20T10:42:06.951Z,21.08
2022-11-20T10:44:56.713Z,19.83
2022-11-20T10:47:26.253Z,20.08
2022-11-20T10:49:56.053Z,21.63
2022-11-20T10:52:46.687Z,25.40
2022-11-20T10:55:39.581Z,22.17
2022-11-20T10:58:25.602Z,19.98
2022-11-20T11:03:27.086Z,21.45
2022-11-20T11:06:05.091Z,19.48
2022-11-20T11:08:36.558Z,22.38
2022-11-20T11:11:25.265Z,20.70
2022-11-20T11:13:53.552Z,21.48
2022-11-20T11:16:52.012Z,21.67
2022-11-20T11:19:20.206Z,20.80
2022-11-20T11:21:55.009Z,19.63
2022-11-20T11:24:42.561Z,19.98
2022-11-20T11:27:23.036Z,16.40
2022-11-20T11:30:07.447Z,19.67
2022-11-20T11:32:35.373Z,18.10
2022-11-20T11:35:06.593Z,16.02
2022-11-20T11:37:37.105Z,16.33
2022-11-20T11:42:59.287Z,18.45
2022-11-20T11:45:27.381Z,21.33
2022-11-20T11:48:18.869Z,19.95
2022-11-20T11:50:51.526Z,16.77
2022-11-20T11:53:21.240Z,14.68
2022-11-20T11:56:05.255Z,18.65
2022-11-20T11:58:50.759Z,18.67
2022-11-20T12:01:49.825Z,18.85
2022-11-20T12:04:36.764Z,18.02
2022-11-20T12:07:48.244Z,17.27
2022-11-20T12:10:58.181Z,19.40
2022-11-20T12:13:42.318Z,15.75
2022-11-20T12:16:13.383Z,16.30
2022-11-20T12:18:42.941Z,19.80
2022-11-20T12:21:20.527Z,20.52
2022-11-20T12:24:09.641Z,17.92
2022-11-20T12:26:48.039Z,18.25
2022-11-20T12:29:34.742Z,17.33
2022-11-20T12:32:15.664Z,20.60
2022-11-20T12:34:50.274Z,19.55
2022-11-20T12:37:34.043Z,21.70
2022-11-20T12:40:16.213Z,21.10
2022-11-20T12:43:11.944Z,19.85
2022-11-20T12:46:06.703Z,18.38
2022-11-20T12:48:53.571Z,16.58
2022-11-20T12:51:56.155Z,17.02
2022-11-20T12:54:39.566Z,16.27
2022-11-20T12:57:28.980Z,13.63
2022-11-20T13:00:15.315Z,13.23
2022-11-20T13:02:57.468Z,9.63
2022-11-20T13:05:37.502Z,11.88
2022-11-20T13:08:05.978Z,14.05
2022-11-20T13:10:34.676Z,11.70
2022-11-20T13:13:25.370Z,12.95
2022-11-20T13:16:14.498Z,11.60
2022-11-20T13:18:43.831Z,9.93
2022-11-20T13:21:22.446Z,9.00
2022-11-20T13:23:50.292Z,11.48
2022-11-20T13:26:26.537Z,10.88
2022-11-20T13:29:20.290Z,11.32
2022-11-20T13:31:50.024Z,10.38
2022-11-20T13:34:25.932Z,9.02
2022-11-20T13:36:55.612Z,10.77
2022-11-20T13:39:37.877Z,11.00
2022-11-20T13:42:14.255Z,11.75
2022-11-20T13:45:50.776Z,9.73
2022-11-20T13:48:43.838Z,11.20
2022-11-20T13:51:45.890Z,9.77
2022-11-20T13:54:38.290Z,10.60
2022-11-20T13:57:30.859Z,9.38
2022-11-20T14:01:14.109Z,8.75
2022-11-20T14:04:05.205Z,9.30
2022-11-20T14:09:56.888Z,8.63
2022-11-20T17:20:12.265Z,12.48
2022-11-20T17:22:44.541Z,13.35
2022-11-20T17:25:27.525Z,10.48
2022-11-20T17:27:59.616Z,13.00
2022-11-20T17:30:31.519Z,12.93
2022-11-20T17:33:00.834Z,12.73
2022-11-20T17:36:09.049Z,14.52
2022-11-20T17:38:52.554Z,14.52
2022-11-20T17:41:31.556Z,15.63
2022-11-20T17:44:01.811Z,13.43
2022-11-20T17:47:05.514Z,11.77
2022-11-20T17:49:40.739Z,12.85
2022-11-20T17:52:09.339Z,13.77
2022-11-20T17:54:58.461Z,14.02
2022-11-20T17:57:51.170Z,14.10
2022-11-20T18:00:45.915Z,13.73
2022-11-20T18:03:19.093Z,13.88
2022-11-20T18:05:49.164Z,14.65
2022-11-20T18:08:20.512Z,16.77
2022-11-20T18:10:55.506Z,15.20
2022-11-20T18:13:48.408Z,16.20
2022-11-20T18:16:25.998Z,16.55
2022-11-20T18:19:02.044Z,16.65
2022-11-20T18:21:51.064Z,16.90
2022-11-20T18:24:33.838Z,18.75
2022-11-20T18:27:26.150Z,16.80
2022-11-20T18:30:03.962Z,19.35
2022-11-20T18:33:03.537Z,19.85
2022-11-20T18:39:22.172Z,19.10
2022-11-20T18:45:16.044Z,22.48
2022-11-20T18:48:07.564Z,21.20
2022-11-20T18:51:22.882Z,22.73
2022-11-20T18:54:59.060Z,22.33
2022-11-20T18:57:33.107Z,22.98
2022-11-20T19:00:39.993Z,22.85
2022-11-20T19:03:28.706Z,22.20
2022-11-20T19:07:21.148Z,21.83
2022-11-20T19:11:22.018Z,24.95
2022-11-20T19:13:56.332Z,22.67
2022-11-20T19:17:08.077Z,23.23
2022-11-20T19:19:45.187Z,25.15
2022-11-20T19:22:58.005Z,22.98
2022-11-20T19:25:51.181Z,22.95
2022-11-20T19:28:50.874Z,25.45
2022-11-20T19:31:47.715Z,23.52
2022-11-20T19:34:57.813Z,25.85
2022-11-20T20:16:46.075Z,34.47
2022-11-20T20:20:37.253Z,37.88
2022-11-20T20:23:12.396Z,36.55
2022-11-20T20:25:45.452Z,35.60
2022-11-20T20:28:27.944Z,35.55
2022-11-20T20:31:30.999Z,33.92
2022-11-20T20:34:30.457Z,32.85
2022-11-20T20:37:39.608Z,31.02
2022-11-20T20:47:56.690Z,28.30
2022-11-20T20:50:37.518Z,28.88
2022-11-20T20:54:06.639Z,30.48
2022-11-20T20:57:33.193Z,29.63
2022-11-20T21:11:18.086Z,33.45
2022-11-20T21:13:53.612Z,34.30
2022-11-20T21:16:25.445Z,35.35
2022-11-20T21:18:55.745Z,35.00
2022-11-20T21:21:44.419Z,42.33
2022-11-20T21:24:18.851Z,33.90
2022-11-20T21:27:57.125Z,34.45
2022-11-20T21:31:39.245Z,32.72
2022-11-20T21:34:23.716Z,34.45
2022-11-20T21:36:54.995Z,35.03
2022-11-20T21:39:35.420Z,37.25
2022-11-20T21:43:13.214Z,37.13
2022-11-20T21:47:24.960Z,35.00
2022-11-20T21:51:14.915Z,35.05
2022-11-20T21:54:02.556Z,37.13
2022-11-20T21:58:12.223Z,39.88
2022-11-20T22:00:41.997Z,36.58
2022-11-20T22:03:22.647Z,36.70
2022-11-20T22:06:34.893Z,39.92
2022-11-20T22:09:05.188Z,38.80
2022-11-20T22:11:34.399Z,40.03
2022-11-20T22:14:21.669Z,39.33
2022-11-20T22:16:54.994Z,40.92
2022-11-20T22:19:27.369Z,48.08
2022-11-20T22:22:24.650Z,47.00
2022-11-20T22:24:53.718Z,45.78
2022-11-20T22:27:24.251Z,55.55
2022-11-20T22:30:27.706Z,50.97
2022-11-20T22:32:58.892Z,51.95
2022-11-20T22:35:42.834Z,64.53
2022-11-20T22:38:48.741Z,53.03
2022-11-20T22:41:27.456Z,47.85
2022-11-20T22:44:07.595Z,46.50
2022-11-20T22:46:47.267Z,47.17
2022-11-20T22:49:24.391Z,48.08
2022-11-20T22:53:17.037Z,49.45
2022-11-20T22:56:38.289Z,46.45
2022-11-20T22:59:12.014Z,46.90
2022-11-20T23:01:56.457Z,47.78
2022-11-20T23:04:33.224Z,48.13
2022-11-20T23:07:06.158Z,50.97
2022-11-20T23:09:40.175Z,48.75
2022-11-20T23:12:25.984Z,50.42
2022-11-20T23:15:31.777Z,48.92
2022-11-20T23:19:27.883Z,47.78
2022-11-20T23:26:40.505Z,45.97
2022-11-20T23:30:58.349Z,47.42
2022-11-20T23:33:46.280Z,46.25
2022-11-20T23:36:23.814Z,49.00
2022-11-20T23:39:03.965Z,43.15
2022-11-20T23:41:34.425Z,44.15
2022-11-20T23:44:05.186Z,45.70
2022-11-20T23:47:08.598Z,42.65
2022-11-20T23:50:47.748Z,42.78
2022-11-20T23:53:57.506Z,40.10
2022-11-20T23:56:43.868Z,40.47
2022-11-20T23:59:27.691Z,39.38
